createdAt,value
2023-07-18T00:00:15.820Z,12.27
2023-07-18T00:02:45.894Z,12.29
2023-07-18T00:05:13.543Z,12.32
2023-07-18T00:07:41.663Z,12.47
2023-07-18T00:10:12.661Z,12.21
2023-07-18T00:12:40.725Z,12.05
2023-07-18T00:15:10.624Z,11.96
2023-07-18T00:17:38.472Z,11.79
2023-07-18T00:20:09.808Z,11.78
2023-07-18T00:22:37.398Z,11.68
2023-07-18T00:25:04.365Z,11.56
2023-07-18T00:27:30.768Z,11.64
2023-07-18T00:29:57.231Z,11.64
2023-07-18T00:32:26.687Z,11.59
2023-07-18T00:34:57.365Z,11.52
2023-07-18T00:37:24.329Z,11.38
2023-07-18T00:39:50.850Z,11.26
2023-07-18T00:42:17.533Z,11.29
2023-07-18T00:44:43.952Z,11.20
2023-07-18T00:47:10.514Z,11.45
2023-07-18T00:49:37.475Z,11.67
2023-07-18T00:52:05.685Z,11.46
2023-07-18T00:54:32.243Z,11.42
2023-07-18T00:56:58.645Z,11.45
2023-07-18T00:59:25.760Z,11.38
2023-07-18T01:01:52.527Z,11.22
2023-07-18T01:04:19.573Z,11.12
2023-07-18T01:06:46.246Z,11.07
2023-07-18T01:09:12.857Z,11.13
2023-07-18T01:11:39.369Z,11.19
2023-07-18T01:14:06.901Z,11.03
2023-07-18T01:16:33.457Z,10.89
2023-07-18T01:18:59.973Z,10.87
2023-07-18T01:21:26.362Z,10.71
2023-07-18T01:23:52.782Z,10.63
2023-07-18T01:26:19.237Z,10.69
2023-07-18T01:28:45.858Z,10.70
2023-07-18T01:31:12.402Z,10.66
2023-07-18T01:33:39.054Z,10.67
2023-07-18T01:36:05.744Z,10.57
2023-07-18T01:38:32.478Z,10.51
2023-07-18T01:41:02.663Z,10.60
2023-07-18T01:43:29.315Z,10.88
2023-07-18T01:46:00.184Z,10.72
2023-07-18T01:48:27.462Z,10.47
2023-07-18T01:50:54.288Z,10.39
2023-07-18T01:53:21.037Z,10.37
2023-07-18T01:55:47.480Z,10.61
2023-07-18T01:58:13.927Z,10.62
2023-07-18T02:00:40.418Z,10.37
2023-07-18T02:03:07.040Z,10.16
2023-07-18T02:05:34.040Z,10.11
2023-07-18T02:08:00.590Z,10.09
2023-07-18T02:10:27.702Z,10.03
2023-07-18T02:12:57.707Z,9.93
2023-07-18T02:15:24.107Z,9.89
2023-07-18T02:17:51.052Z,9.90
2023-07-18T02:20:17.876Z,9.95
2023-07-18T02:22:45.892Z,9.89
2023-07-18T02:25:13.171Z,9.78
2023-07-18T02:27:41.491Z,9.76
2023-07-18T02:30:12.681Z,9.91
2023-07-18T02:32:40.399Z,9.83
2023-07-18T02:35:11.741Z,9.96
2023-07-18T02:37:38.967Z,9.98
2023-07-18T02:40:12.707Z,9.85
2023-07-18T02:42:39.725Z,10.04
2023-07-18T02:45:11.050Z,9.91
2023-07-18T02:47:38.336Z,10.03
2023-07-18T02:50:05.556Z,10.02
2023-07-18T02:52:32.697Z,10.11
2023-07-18T02:54:59.320Z,9.81
2023-07-18T02:57:25.750Z,9.56
2023-07-18T02:59:52.253Z,9.45
2023-07-18T03:02:18.819Z,9.35
2023-07-18T03:04:48.694Z,9.56
2023-07-18T03:07:15.128Z,9.88
2023-07-18T03:09:43.044Z,9.87
2023-07-18T03:12:11.695Z,9.80
2023-07-18T03:14:38.763Z,9.43
2023-07-18T03:17:05.703Z,9.40
2023-07-18T03:19:32.878Z,9.29
2023-07-18T03:21:59.439Z,9.31
2023-07-18T03:24:26.036Z,9.70
2023-07-18T03:26:53.797Z,9.55
2023-07-18T03:29:20.963Z,9.39
2023-07-18T03:31:47.640Z,9.38
2023-07-18T03:34:14.101Z,9.36
2023-07-18T03:36:40.502Z,9.32
2023-07-18T03:39:07.126Z,9.21
2023-07-18T03:41:33.611Z,9.25
2023-07-18T03:44:01.127Z,9.17
2023-07-18T03:46:27.574Z,9.12
2023-07-18T03:48:54.208Z,9.06
2023-07-18T03:51:21.109Z,9.09
2023-07-18T03:53:51.979Z,9.29
2023-07-18T03:56:18.793Z,9.43
2023-07-18T03:58:45.208Z,9.52
2023-07-18T04:01:11.767Z,9.56
2023-07-18T04:03:39.304Z,9.59
2023-07-18T04:06:07.713Z,9.60
2023-07-18T04:08:34.438Z,9.74
2023-07-18T04:11:01.198Z,9.66
2023-07-18T04:13:27.690Z,9.57
2023-07-18T04:15:55.292Z,9.65
2023-07-18T04:18:22.312Z,9.62
2023-07-18T04:20:50.216Z,9.77
2023-07-18T04:23:17.414Z,9.79
2023-07-18T04:25:57.364Z,10.03
2023-07-18T04:28:24.112Z,10.08
2023-07-18T04:30:50.568Z,9.91
2023-07-18T04:33:17.072Z,9.88
2023-07-18T04:35:46.008Z,9.83
2023-07-18T04:38:14.849Z,10.17
2023-07-18T04:40:42.388Z,10.48
2023-07-18T04:43:09.469Z,10.61
2023-07-18T04:45:46.437Z,10.44
2023-07-18T04:48:14.737Z,10.38
2023-07-18T04:50:46.177Z,10.51
2023-07-18T04:53:12.870Z,10.64
2023-07-18T04:55:39.985Z,10.68
2023-07-18T04:58:08.049Z,10.99
2023-07-18T05:00:35.503Z,10.96
2023-07-18T05:03:02.079Z,11.00
2023-07-18T05:05:30.098Z,11.04
2023-07-18T05:07:59.533Z,11.07
2023-07-18T05:10:26.591Z,11.46
2023-07-18T05:12:54.212Z,11.54
2023-07-18T05:15:21.039Z,11.70
2023-07-18T05:17:48.489Z,11.76
2023-07-18T05:20:15.567Z,11.83
2023-07-18T05:22:44.589Z,12.10
2023-07-18T05:25:13.635Z,12.43
2023-07-18T05:27:41.276Z,12.83
2023-07-18T05:30:15.020Z,12.78
2023-07-18T05:32:42.527Z,12.94
2023-07-18T05:35:15.036Z,13.54
2023-07-18T05:37:43.233Z,14.30
2023-07-18T05:40:11.201Z,14.57
2023-07-18T05:42:42.237Z,14.73
2023-07-18T05:45:10.914Z,15.39
2023-07-18T05:47:39.587Z,15.53
2023-07-18T05:50:07.688Z,16.07
2023-07-18T05:52:34.809Z,16.32
2023-07-18T05:55:01.408Z,16.65
2023-07-18T05:57:27.949Z,17.04
2023-07-18T05:59:54.396Z,17.23
2023-07-18T06:02:22.357Z,17.92
2023-07-18T06:04:48.888Z,18.42
2023-07-18T06:07:18.248Z,18.07
2023-07-18T06:09:44.825Z,18.01
2023-07-18T06:12:12.946Z,17.77
2023-07-18T06:14:39.682Z,18.00
2023-07-18T06:17:06.506Z,18.62
2023-07-18T06:19:33.070Z,19.43
2023-07-18T06:22:00.131Z,20.42
2023-07-18T06:24:26.693Z,21.18
2023-07-18T06:26:53.566Z,20.82
2023-07-18T06:29:21.425Z,21.18
2023-07-18T06:31:49.458Z,21.52
2023-07-18T06:34:19.874Z,21.23
2023-07-18T06:36:47.047Z,21.67
2023-07-18T06:39:15.238Z,22.15
2023-07-18T06:41:42.268Z,22.46
2023-07-18T06:44:10.118Z,22.65
2023-07-18T06:46:37.296Z,21.99
2023-07-18T06:49:04.285Z,21.33
2023-07-18T06:51:30.907Z,20.93
2023-07-18T06:53:57.376Z,21.36
2023-07-18T06:56:24.557Z,21.72
2023-07-18T06:58:51.113Z,22.39
2023-07-18T07:01:17.717Z,22.36
2023-07-18T07:03:44.510Z,22.07
2023-07-18T07:06:14.253Z,20.71
2023-07-18T07:08:40.858Z,21.17
2023-07-18T07:11:09.499Z,22.83
2023-07-18T07:13:36.737Z,21.88
2023-07-18T07:16:06.351Z,22.72
2023-07-18T07:18:32.904Z,23.15
2023-07-18T07:21:01.405Z,22.66
2023-07-18T07:23:29.442Z,21.98
2023-07-18T07:25:55.941Z,22.10
2023-07-18T07:28:24.988Z,22.35
2023-07-18T07:30:52.420Z,22.10
2023-07-18T07:33:20.261Z,22.13
2023-07-18T07:35:47.203Z,22.11
2023-07-18T07:38:13.853Z,22.40
2023-07-18T07:40:40.270Z,22.35
2023-07-18T07:43:06.736Z,22.81
2023-07-18T07:45:33.153Z,23.04
2023-07-18T07:47:59.937Z,22.65
2023-07-18T07:50:26.677Z,22.90
2023-07-18T07:52:53.284Z,22.06
2023-07-18T07:55:19.796Z,22.71
2023-07-18T07:57:46.380Z,22.90
2023-07-18T08:00:14.022Z,23.18
2023-07-18T08:02:46.584Z,23.10
2023-07-18T08:05:27.343Z,22.80
2023-07-18T08:07:53.972Z,22.82
2023-07-18T08:10:26.973Z,22.72
2023-07-18T08:13:02.896Z,23.09
2023-07-18T08:15:43.483Z,23.28
2023-07-18T08:18:25.488Z,23.73
2023-07-18T08:21:04.494Z,24.06
2023-07-18T08:23:30.943Z,22.95
2023-07-18T08:25:57.359Z,23.25
2023-07-18T08:28:24.017Z,23.56
2023-07-18T08:30:50.559Z,23.54
2023-07-18T08:33:21.754Z,23.91
2023-07-18T08:35:51.396Z,24.08
2023-07-18T08:38:26.076Z,23.40
2023-07-18T08:40:59.849Z,23.72
2023-07-18T08:43:56.235Z,23.67
2023-07-18T08:46:22.918Z,24.14
2023-07-18T08:48:52.220Z,24.54
2023-07-18T08:51:23.070Z,24.00
2023-07-18T08:54:03.425Z,23.64
2023-07-18T08:56:30.059Z,24.39
2023-07-18T08:59:03.671Z,24.05
2023-07-18T09:01:30.480Z,23.38
2023-07-18T09:03:57.172Z,23.84
2023-07-18T09:06:24.313Z,24.09
2023-07-18T09:08:51.542Z,23.98
2023-07-18T09:11:20.158Z,24.00
2023-07-18T09:13:50.762Z,24.39
2023-07-18T09:16:22.496Z,24.58
2023-07-18T09:18:54.055Z,24.49
2023-07-18T09:21:21.895Z,24.03
2023-07-18T09:23:49.129Z,24.54
2023-07-18T09:26:17.969Z,25.36
2023-07-18T09:28:44.560Z,24.53
2023-07-18T09:31:21.234Z,24.39
2023-07-18T09:33:49.747Z,24.49
2023-07-18T09:36:19.028Z,24.53
2023-07-18T09:38:49.810Z,24.36
2023-07-18T09:41:18.544Z,25.02
2023-07-18T09:43:45.793Z,25.13
2023-07-18T09:46:17.087Z,24.56
2023-07-18T09:48:45.696Z,24.50
2023-07-18T09:51:17.714Z,25.42
2023-07-18T09:53:46.677Z,25.02
2023-07-18T09:56:16.100Z,25.51
2023-07-18T09:58:48.069Z,25.40
2023-07-18T10:01:21.067Z,25.58
2023-07-18T10:03:53.716Z,24.83
2023-07-18T10:06:21.490Z,25.29
2023-07-18T10:08:48.641Z,25.04
2023-07-18T10:11:15.358Z,25.22
2023-07-18T10:13:43.117Z,25.00
2023-07-18T10:16:17.671Z,24.46
2023-07-18T10:18:48.417Z,24.15
2023-07-18T10:21:29.982Z,24.91
2023-07-18T10:23:57.018Z,25.56
2023-07-18T10:26:33.584Z,25.99
2023-07-18T10:29:02.982Z,25.92
2023-07-18T10:31:29.663Z,26.35
2023-07-18T10:34:10.268Z,25.51
2023-07-18T10:36:38.289Z,25.44
2023-07-18T10:39:10.236Z,24.92
2023-07-18T10:41:37.750Z,25.26
2023-07-18T10:44:04.531Z,24.70
2023-07-18T10:46:37.866Z,24.73
2023-07-18T10:49:04.630Z,24.85
2023-07-18T10:51:31.789Z,24.91
2023-07-18T10:54:00.094Z,25.19
2023-07-18T10:56:27.134Z,25.30
2023-07-18T10:58:56.139Z,25.40
2023-07-18T11:01:27.388Z,25.43
2023-07-18T11:03:56.929Z,25.54
2023-07-18T11:06:23.930Z,25.96
2023-07-18T11:08:50.508Z,26.51
2023-07-18T11:11:19.705Z,26.30
2023-07-18T11:13:46.700Z,25.78
2023-07-18T11:16:17.074Z,25.71
2023-07-18T11:18:46.448Z,25.85
2023-07-18T11:21:14.563Z,26.23
2023-07-18T11:23:42.719Z,25.96
2023-07-18T11:26:17.773Z,26.06
2023-07-18T11:28:46.591Z,25.90
2023-07-18T11:31:39.039Z,25.76
2023-07-18T11:34:07.382Z,26.13
2023-07-18T11:36:38.228Z,25.91
2023-07-18T11:39:20.732Z,25.86
2023-07-18T11:41:48.153Z,26.19
2023-07-18T11:44:24.568Z,26.84
2023-07-18T11:46:53.426Z,27.07
2023-07-18T11:49:33.632Z,27.28
2023-07-18T11:52:02.515Z,27.15
2023-07-18T11:54:29.015Z,27.05
2023-07-18T11:56:55.475Z,26.95
2023-07-18T11:59:22.792Z,28.11
2023-07-18T12:01:49.352Z,28.27
2023-07-18T12:04:16.121Z,28.95
2023-07-18T12:06:42.777Z,28.84
2023-07-18T12:09:09.360Z,28.34
2023-07-18T12:11:36.066Z,28.79
2023-07-18T12:14:05.535Z,29.01
2023-07-18T12:16:32.526Z,29.75
2023-07-18T12:18:59.278Z,28.68
2023-07-18T12:21:25.725Z,28.88
2023-07-18T12:23:52.156Z,28.63
2023-07-18T12:26:18.589Z,28.85
2023-07-18T12:28:45.325Z,28.72
2023-07-18T12:31:11.983Z,29.19
2023-07-18T12:33:39.564Z,29.63
2023-07-18T12:36:06.505Z,30.36
2023-07-18T12:38:32.987Z,29.40
2023-07-18T12:40:59.653Z,29.82
2023-07-18T12:43:26.410Z,29.47
2023-07-18T12:45:52.918Z,29.88
2023-07-18T12:48:20.408Z,30.40
2023-07-18T12:50:46.808Z,30.20
2023-07-18T12:53:13.242Z,30.57
2023-07-18T12:55:43.941Z,30.93
2023-07-18T12:58:10.639Z,30.72
2023-07-18T13:00:37.332Z,30.80
2023-07-18T13:03:04.001Z,29.96
2023-07-18T13:05:33.413Z,30.38
2023-07-18T13:07:59.844Z,29.95
2023-07-18T13:10:28.835Z,31.90
2023-07-18T13:12:55.311Z,30.59
2023-07-18T13:15:25.006Z,30.03
2023-07-18T13:17:55.925Z,30.79
2023-07-18T13:20:30.621Z,30.87
2023-07-18T13:22:57.186Z,30.71
2023-07-18T13:25:23.718Z,32.00
2023-07-18T13:27:50.274Z,33.62
2023-07-18T13:30:17.665Z,32.63
2023-07-18T13:32:46.170Z,33.14
2023-07-18T13:35:12.824Z,33.75
2023-07-18T13:37:39.415Z,33.75
2023-07-18T13:40:07.552Z,33.93
2023-07-18T13:43:16.376Z,32.94
2023-07-18T13:45:57.633Z,31.36
2023-07-18T13:49:06.993Z,31.89
2023-07-18T13:51:59.169Z,31.05
2023-07-18T13:57:40.270Z,31.68
2023-07-18T14:00:07.686Z,33.12
2023-07-18T14:02:34.796Z,32.79
2023-07-18T14:05:01.397Z,35.18
2023-07-18T14:07:28.048Z,33.93
2023-07-18T14:09:54.552Z,34.12
2023-07-18T14:12:20.985Z,34.62
2023-07-18T14:14:47.463Z,32.85
2023-07-18T14:17:13.892Z,32.90
2023-07-18T14:19:40.308Z,34.44
2023-07-18T14:22:07.212Z,34.83
2023-07-18T14:24:33.673Z,34.94
2023-07-18T14:27:00.158Z,32.16
2023-07-18T14:29:26.641Z,29.98
2023-07-18T14:31:54.010Z,29.15
2023-07-18T14:34:20.440Z,28.99
2023-07-18T14:36:46.941Z,28.68
2023-07-18T14:39:13.371Z,28.35
2023-07-18T14:41:39.926Z,28.08
2023-07-18T14:44:06.445Z,30.59
2023-07-18T14:46:33.764Z,30.28
2023-07-18T14:49:00.425Z,30.41
2023-07-18T14:51:26.933Z,31.53
2023-07-18T14:53:53.445Z,30.79
2023-07-18T14:56:20.637Z,30.87
2023-07-18T14:58:47.232Z,30.66
2023-07-18T15:01:14.151Z,30.31
2023-07-18T15:03:40.690Z,30.78
2023-07-18T15:06:07.352Z,31.12
2023-07-18T15:08:34.705Z,31.46
2023-07-18T15:11:04.192Z,31.54
2023-07-18T15:13:30.767Z,30.10
2023-07-18T15:15:57.209Z,28.83
2023-07-18T15:18:23.782Z,27.79
2023-07-18T15:20:50.306Z,27.69
2023-07-18T15:23:16.938Z,27.97
2023-07-18T15:25:43.638Z,28.64
2023-07-18T15:28:14.321Z,28.09
2023-07-18T15:30:40.764Z,28.76
2023-07-18T15:33:24.140Z,28.67
2023-07-18T15:35:51.947Z,28.58
2023-07-18T15:38:18.399Z,28.73
2023-07-18T15:40:44.845Z,27.92
2023-07-18T15:43:11.313Z,27.25
2023-07-18T15:45:37.749Z,27.07
2023-07-18T15:48:04.552Z,27.39
2023-07-18T15:50:32.113Z,27.24
2023-07-18T15:53:00.694Z,27.14
2023-07-18T15:55:28.092Z,27.24
2023-07-18T15:57:54.627Z,27.14
2023-07-18T16:00:21.176Z,26.88
2023-07-18T16:02:47.801Z,27.00
2023-07-18T16:05:14.324Z,26.66
2023-07-18T16:07:40.736Z,26.93
2023-07-18T16:10:07.611Z,26.74
2023-07-18T16:12:34.024Z,26.72
2023-07-18T16:15:00.617Z,26.75
2023-07-18T16:17:28.865Z,26.85
2023-07-18T16:19:57.185Z,26.81
2023-07-18T16:22:24.102Z,26.94
2023-07-18T16:24:50.569Z,26.62
2023-07-18T16:27:17.259Z,26.64
2023-07-18T16:29:44.998Z,26.88
2023-07-18T16:32:11.572Z,26.65
2023-07-18T16:34:38.196Z,26.24
2023-07-18T16:37:05.028Z,26.39
2023-07-18T16:39:31.554Z,26.51
2023-07-18T16:42:03.371Z,26.11
2023-07-18T16:44:37.132Z,26.07
2023-07-18T16:47:04.274Z,26.25
2023-07-18T16:49:31.679Z,26.11
2023-07-18T16:51:58.061Z,25.96
2023-07-18T16:54:24.472Z,25.97
2023-07-18T16:56:50.862Z,25.49
2023-07-18T16:59:17.328Z,25.63
2023-07-18T17:01:44.248Z,25.77
2023-07-18T17:04:10.773Z,25.67
2023-07-18T17:06:37.213Z,25.60
2023-07-18T17:09:03.740Z,25.58
2023-07-18T17:11:30.300Z,25.47
2023-07-18T17:13:56.872Z,25.43
2023-07-18T17:16:23.914Z,25.31
2023-07-18T17:18:50.825Z,25.29
2023-07-18T17:21:17.327Z,25.29
2023-07-18T17:23:43.806Z,25.07
2023-07-18T17:26:10.318Z,25.19
2023-07-18T17:28:37.557Z,25.06
2023-07-18T17:31:04.605Z,25.09
2023-07-18T17:33:31.453Z,24.84
2023-07-18T17:35:58.002Z,24.71
2023-07-18T17:38:24.642Z,24.83
2023-07-18T17:40:51.294Z,24.70
2023-07-18T17:43:18.378Z,24.66
2023-07-18T17:45:44.817Z,24.69
2023-07-18T17:48:11.328Z,24.68
2023-07-18T17:50:37.773Z,24.64
2023-07-18T17:53:04.800Z,24.74
2023-07-18T17:55:31.444Z,24.85
2023-07-18T17:57:57.897Z,24.79
2023-07-18T18:00:24.359Z,24.56
2023-07-18T18:02:50.903Z,24.60
2023-07-18T18:05:44.907Z,24.48
2023-07-18T18:08:11.979Z,24.42
2023-07-18T18:10:38.447Z,24.46
2023-07-18T18:13:04.895Z,24.44
2023-07-18T18:15:31.422Z,24.49
2023-07-18T18:17:57.884Z,24.38
2023-07-18T18:20:24.475Z,24.29
2023-07-18T18:22:50.974Z,24.25
2023-07-18T18:25:17.581Z,24.21
2023-07-18T18:27:44.951Z,24.07
2023-07-18T18:30:12.493Z,24.03
2023-07-18T18:32:39.015Z,23.84
2023-07-18T18:35:08.014Z,23.86
2023-07-18T18:37:34.995Z,23.78
2023-07-18T18:40:01.507Z,23.71
2023-07-18T18:42:27.940Z,23.48
2023-07-18T18:44:54.424Z,23.33
2023-07-18T18:47:20.812Z,23.22
2023-07-18T18:49:47.251Z,23.13
2023-07-18T18:52:13.732Z,23.09
2023-07-18T18:54:40.363Z,22.97
2023-07-18T18:57:08.322Z,22.86
2023-07-18T18:59:34.961Z,22.73
2023-07-18T19:02:01.623Z,22.59
2023-07-18T19:04:28.075Z,22.27
2023-07-18T19:06:56.584Z,22.24
2023-07-18T19:09:23.230Z,22.12
2023-07-18T19:11:49.772Z,21.99
2023-07-18T19:14:16.469Z,21.60
2023-07-18T19:16:42.997Z,21.55
2023-07-18T19:19:11.497Z,21.41
2023-07-18T19:21:37.975Z,21.16
2023-07-18T19:24:04.778Z,20.90
2023-07-18T19:26:31.383Z,20.64
2023-07-18T19:28:57.844Z,20.51
2023-07-18T19:31:24.528Z,20.32
2023-07-18T19:33:51.009Z,20.36
2023-07-18T19:36:17.513Z,20.35
2023-07-18T19:38:43.964Z,19.95
2023-07-18T19:41:10.382Z,19.87
2023-07-18T19:43:37.020Z,19.55
2023-07-18T19:46:03.911Z,19.41
2023-07-18T19:48:30.386Z,19.43
2023-07-18T19:50:56.871Z,19.13
2023-07-18T19:53:25.623Z,18.84
2023-07-18T19:55:52.222Z,19.00
2023-07-18T19:58:18.680Z,18.91
2023-07-18T20:00:45.042Z,18.58
2023-07-18T20:03:11.680Z,18.34
2023-07-18T20:05:38.343Z,18.45
2023-07-18T20:08:04.801Z,18.54
2023-07-18T20:10:31.304Z,18.21
2023-07-18T20:12:57.777Z,18.09
2023-07-18T20:15:24.901Z,17.59
2023-07-18T20:17:51.585Z,17.63
2023-07-18T20:20:19.363Z,17.65
2023-07-18T20:22:45.966Z,17.58
2023-07-18T20:25:12.772Z,17.55
2023-07-18T20:27:39.311Z,17.35
2023-07-18T20:30:06.645Z,17.12
2023-07-18T20:32:35.181Z,17.08
2023-07-18T20:35:01.775Z,16.97
2023-07-18T20:37:28.325Z,16.88
2023-07-18T20:39:55.824Z,16.91
2023-07-18T20:42:22.390Z,16.95
2023-07-18T20:44:48.879Z,16.89
2023-07-18T20:47:15.321Z,16.71
2023-07-18T20:49:41.797Z,16.44
2023-07-18T20:52:08.461Z,16.37
2023-07-18T20:54:36.702Z,16.32
2023-07-18T20:57:03.813Z,16.36
2023-07-18T20:59:30.291Z,16.26
2023-07-18T21:01:56.971Z,15.96
2023-07-18T21:04:23.822Z,15.96
2023-07-18T21:06:50.333Z,15.99
2023-07-18T21:09:16.747Z,15.96
2023-07-18T21:11:44.473Z,16.04
2023-07-18T21:14:11.236Z,15.74
2023-07-18T21:16:38.247Z,15.77
2023-07-18T21:19:04.740Z,15.84
2023-07-18T21:21:31.525Z,15.80
2023-07-18T21:23:59.036Z,15.84
2023-07-18T21:26:25.615Z,15.76
2023-07-18T21:29:04.144Z,15.70
2023-07-18T21:31:32.779Z,15.63
2023-07-18T21:33:59.234Z,15.58
2023-07-18T21:36:25.752Z,15.46
2023-07-18T21:38:52.204Z,15.30
2023-07-18T21:41:20.737Z,15.29
2023-07-18T21:43:47.921Z,15.32
2023-07-18T21:46:14.609Z,15.28
2023-07-18T21:48:41.028Z,15.01
2023-07-18T21:51:07.442Z,15.03
2023-07-18T21:53:33.856Z,15.11
2023-07-18T21:56:03.220Z,15.30
2023-07-18T21:58:30.102Z,15.41
2023-07-18T22:00:56.647Z,15.39
2023-07-18T22:03:23.175Z,15.39
2023-07-18T22:05:49.846Z,15.19
2023-07-18T22:08:16.375Z,15.13
2023-07-18T22:10:42.973Z,15.28
2023-07-18T22:13:09.442Z,15.31
2023-07-18T22:15:35.876Z,15.21
2023-07-18T22:18:15.894Z,14.93
2023-07-18T22:20:47.121Z,14.85
2023-07-18T22:23:13.626Z,14.94
2023-07-18T22:25:40.163Z,14.95
2023-07-18T22:28:06.563Z,14.94
2023-07-18T22:30:32.993Z,15.04
2023-07-18T22:32:59.572Z,15.15
2023-07-18T22:35:26.019Z,15.31
2023-07-18T22:37:52.511Z,15.32
2023-07-18T22:40:18.963Z,15.28
2023-07-18T22:42:46.497Z,14.82
2023-07-18T22:45:13.038Z,14.88
2023-07-18T22:47:39.594Z,14.91
2023-07-18T22:50:06.684Z,14.64
2023-07-18T22:52:33.090Z,14.69
2023-07-18T22:54:59.508Z,14.61
2023-07-18T22:57:25.984Z,14.67
2023-07-18T22:59:53.736Z,14.49
2023-07-18T23:02:20.537Z,14.35
2023-07-18T23:04:47.317Z,14.28
2023-07-18T23:07:14.899Z,14.20
2023-07-18T23:09:41.431Z,14.27
2023-07-18T23:12:09.089Z,14.34
2023-07-18T23:14:35.538Z,14.35
2023-07-18T23:17:02.024Z,14.31
2023-07-18T23:19:28.554Z,14.25
2023-07-18T23:21:55.058Z,14.21
2023-07-18T23:24:21.539Z,14.15
2023-07-18T23:26:47.984Z,14.06
2023-07-18T23:29:14.539Z,14.11
2023-07-18T23:31:41.013Z,14.03
2023-07-18T23:34:07.484Z,13.86
2023-07-18T23:36:34.077Z,13.84
2023-07-18T23:39:15.423Z,13.92
2023-07-18T23:41:42.347Z,13.77
2023-07-18T23:44:08.765Z,13.64
2023-07-18T23:46:35.233Z,13.64
2023-07-18T23:49:01.658Z,13.65
2023-07-18T23:51:28.071Z,13.78
2023-07-18T23:53:54.693Z,13.76
2023-07-18T23:56:21.173Z,13.76
2023-07-18T23:58:47.622Z,13.58
